Time;durP1;ratioP1;P1;durP2;ratioP2;P2;SDS_P1;SDS_P2;PMS_P1;PMS_P2;Temp;Humidity;BMP_temperature;BMP_pressure;BME280_temperature;BME280_humidity;BME280_pressure;Samples;Min_cycle;Max_cycle;Signal;HPM_P1;HPM_P2
2022/05/08 00:00:31;;;;;;;3.28;2.33;;;11.10;99.90;;;;;;5034982;28;20093;-64
2022/05/08 00:02:58;;;;;;;4.32;2.50;;;11.10;99.90;;;;;;5034785;28;20458;-63
2022/05/08 00:05:24;;;;;;;4.78;2.53;;;11.20;99.90;;;;;;5034666;28;20069;-63
2022/05/08 00:07:50;;;;;;;2.72;2.40;;;11.20;99.90;;;;;;5034953;28;20481;-64
2022/05/08 00:10:56;;;;;;;3.58;2.42;;;11.20;99.90;;;;;;5034663;28;20090;-63
2022/05/08 00:13:22;;;;;;;2.85;2.22;;;11.20;99.90;;;;;;5034585;28;20072;-62
2022/05/08 00:15:47;;;;;;;3.90;2.35;;;11.20;99.90;;;;;;5034687;28;20057;-63
2022/05/08 00:18:13;;;;;;;3.40;1.98;;;11.30;99.90;;;;;;5034549;28;20061;-63
2022/05/08 00:20:38;;;;;;;2.50;1.90;;;11.30;99.90;;;;;;5034427;28;20080;-63
2022/05/08 00:23:04;;;;;;;3.63;2.17;;;11.30;99.90;;;;;;5033656;28;20052;-64
2022/05/08 00:25:30;;;;;;;2.47;1.90;;;11.20;99.90;;;;;;5034504;28;20413;-63
2022/05/08 00:27:55;;;;;;;3.47;2.22;;;11.30;99.90;;;;;;5016289;28;20045;-64
2022/05/08 00:30:21;;;;;;;3.03;2.13;;;11.20;99.90;;;;;;5034095;28;20052;-62
2022/05/08 00:32:47;;;;;;;3.25;2.30;;;11.20;99.90;;;;;;5034104;28;20037;-64
2022/05/08 00:35:12;;;;;;;3.05;2.05;;;11.20;99.90;;;;;;5034181;28;20037;-63
2022/05/08 00:37:39;;;;;;;4.78;2.47;;;11.20;99.90;;;;;;5034061;28;20029;-64
2022/05/08 00:40:05;;;;;;;3.80;2.60;;;11.20;99.90;;;;;;5016345;28;20034;-62
2022/05/08 00:42:30;;;;;;;2.97;2.28;;;11.20;99.90;;;;;;5033881;28;20111;-64
2022/05/08 00:44:56;;;;;;;4.80;2.55;;;11.20;99.90;;;;;;5033644;28;20064;-63
2022/05/08 00:47:23;;;;;;;4.65;2.97;;;11.20;99.90;;;;;;5033576;28;20096;-63
2022/05/08 00:49:49;;;;;;;3.83;2.70;;;11.20;99.90;;;;;;5033545;28;20049;-63
2022/05/08 00:52:16;;;;;;;4.65;2.53;;;11.10;99.90;;;;;;5033421;28;20121;-62
2022/05/08 00:54:42;;;;;;;5.43;3.15;;;11.10;99.90;;;;;;5033354;28;20029;-63
2022/05/08 00:57:10;;;;;;;7.00;2.95;;;11.10;99.90;;;;;;5033513;28;20033;-63
2022/05/08 00:59:36;;;;;;;4.60;2.75;;;11.00;99.90;;;;;;5033507;28;20381;-63
2022/05/08 01:02:03;;;;;;;5.10;3.28;;;11.00;99.90;;;;;;5033579;28;20124;-63
2022/05/08 01:04:30;;;;;;;4.40;2.90;;;10.90;99.90;;;;;;5033715;28;20037;-62
2022/05/08 01:06:55;;;;;;;4.07;2.58;;;10.80;99.90;;;;;;5033691;28;20083;-63
2022/05/08 01:09:22;;;;;;;4.13;2.70;;;10.70;99.90;;;;;;5033428;28;20029;-63
2022/05/08 01:11:48;;;;;;;4.63;2.97;;;10.70;99.90;;;;;;5033215;28;20033;-63
2022/05/08 01:14:14;;;;;;;5.18;2.67;;;10.60;99.90;;;;;;5033239;28;20417;-63
2022/05/08 01:16:40;;;;;;;4.53;2.88;;;10.60;99.90;;;;;;5033171;28;20026;-63
2022/05/08 01:19:05;;;;;;;5.78;2.88;;;10.50;99.90;;;;;;5033047;28;20029;-64
2022/05/08 01:21:43;;;;;;;3.80;2.67;;;10.40;99.90;;;;;;5032829;28;20038;-63
2022/05/08 01:24:11;;;;;;;6.00;3.00;;;10.30;99.90;;;;;;5032978;28;20537;-63
2022/05/08 01:26:36;;;;;;;6.00;2.53;;;10.10;99.90;;;;;;5032544;28;20620;-63
2022/05/08 01:29:03;;;;;;;2.85;2.03;;;10.00;99.90;;;;;;5032462;28;20041;-64
2022/05/08 01:31:31;;;;;;;3.25;2.33;;;9.90;99.90;;;;;;5032346;28;20033;-62
2022/05/08 01:33:57;;;;;;;4.30;2.42;;;9.90;99.90;;;;;;5032970;28;20536;-63
2022/05/08 01:36:23;;;;;;;3.88;2.05;;;9.80;99.90;;;;;;5032716;28;20104;-63
2022/05/08 01:38:50;;;;;;;3.55;1.90;;;9.60;99.90;;;;;;5032436;28;20588;-62
2022/05/08 01:41:16;;;;;;;4.45;2.28;;;9.60;99.90;;;;;;5032322;28;20116;-63
2022/05/08 01:43:41;;;;;;;3.75;2.53;;;9.50;99.90;;;;;;5032436;28;20041;-63
2022/05/08 01:46:07;;;;;;;3.35;1.85;;;9.50;99.90;;;;;;5032394;28;20088;-63
2022/05/08 01:48:34;;;;;;;5.35;1.95;;;9.50;99.90;;;;;;5032408;28;20541;-63
2022/05/08 01:51:01;;;;;;;3.28;1.77;;;9.40;99.90;;;;;;5032344;28;20410;-63
2022/05/08 01:53:31;;;;;;;2.50;1.90;;;9.40;99.90;;;;;;5032828;28;20029;-63
2022/05/08 01:55:57;;;;;;;4.97;2.00;;;9.40;99.90;;;;;;5032680;28;20038;-63
2022/05/08 01:58:26;;;;;;;4.03;2.67;;;9.50;99.90;;;;;;5032582;28;20495;-63
2022/05/08 02:00:52;;;;;;;2.40;1.60;;;9.60;99.90;;;;;;5014709;28;20030;-63
2022/05/08 02:03:20;;;;;;;4.63;2.27;;;9.70;99.90;;;;;;5032375;28;20056;-63
2022/05/08 02:05:47;;;;;;;5.00;2.38;;;9.70;99.90;;;;;;5032111;28;20037;-63
2022/05/08 02:08:13;;;;;;;6.10;2.10;;;9.80;99.90;;;;;;5032261;28;20036;-63
2022/05/08 02:10:39;;;;;;;2.90;1.90;;;9.70;99.90;;;;;;5032599;28;20072;-62
2022/05/08 02:13:07;;;;;;;3.83;1.80;;;9.70;99.90;;;;;;5032692;28;20478;-63
2022/05/08 02:15:33;;;;;;;6.20;2.30;;;9.70;99.90;;;;;;5014570;28;20036;-64
2022/05/08 02:18:01;;;;;;;3.72;1.88;;;9.70;99.90;;;;;;5014328;28;20060;-64
2022/05/08 02:20:27;;;;;;;5.03;2.28;;;9.60;99.90;;;;;;5032305;28;20041;-64
2022/05/08 02:22:53;;;;;;;2.75;1.92;;;9.50;99.90;;;;;;5032310;28;20048;-64
2022/05/08 02:25:19;;;;;;;3.95;2.20;;;9.40;99.90;;;;;;5032737;28;20116;-64
2022/05/08 02:27:49;;;;;;;4.88;2.28;;;9.30;99.90;;;;;;5032382;28;20482;-63
2022/05/08 02:30:16;;;;;;;3.88;2.10;;;9.20;99.90;;;;;;5030769;28;20081;-63
2022/05/08 02:32:42;;;;;;;3.92;2.42;;;9.10;99.90;;;;;;5032688;28;20036;-63
2022/05/08 02:35:11;;;;;;;3.88;2.30;;;9.20;99.90;;;;;;5035787;28;20474;-64
2022/05/08 02:37:38;;;;;;;2.53;1.92;;;9.10;99.90;;;;;;5036602;28;20112;-64
2022/05/08 02:40:06;;;;;;;3.10;1.85;;;9.00;99.90;;;;;;5036365;28;20121;-64
2022/05/08 02:42:32;;;;;;;3.35;2.13;;;8.90;99.90;;;;;;5036564;28;20037;-64
2022/05/08 02:44:58;;;;;;;6.80;2.80;;;8.80;99.90;;;;;;5036129;28;20121;-63
2022/05/08 02:47:23;;;;;;;4.97;2.63;;;8.70;99.90;;;;;;5036233;28;20061;-63
2022/05/08 02:49:49;;;;;;;4.25;2.22;;;8.60;99.90;;;;;;5036369;28;20041;-63
2022/05/08 02:52:15;;;;;;;4.63;2.65;;;8.50;99.90;;;;;;5036627;28;20447;-63
2022/05/08 02:54:40;;;;;;;4.60;2.78;;;8.60;99.90;;;;;;5035173;28;20056;-64
2022/05/08 02:59:51;;;;;;;3.90;2.50;;;8.60;99.90;;;;;;5035199;28;20041;-63
2022/05/08 03:02:17;;;;;;;13.02;3.92;;;8.70;99.90;;;;;;5017517;28;20038;-63
2022/05/08 03:04:42;;;;;;;8.38;3.72;;;8.70;99.90;;;;;;5035062;28;20033;-64
2022/05/08 03:07:08;;;;;;;9.38;3.30;;;8.70;99.90;;;;;;5035043;28;20505;-64
2022/05/08 03:09:34;;;;;;;13.27;3.80;;;8.60;99.90;;;;;;5034999;28;20045;-63
2022/05/08 03:12:00;;;;;;;8.75;3.75;;;8.40;99.90;;;;;;5035121;28;20040;-63
2022/05/08 03:14:25;;;;;;;8.85;4.13;;;8.30;99.90;;;;;;5035045;28;20068;-63
2022/05/08 03:16:51;;;;;;;6.60;3.50;;;8.30;99.90;;;;;;5017236;28;20030;-64
2022/05/08 03:19:19;;;;;;;6.10;3.80;;;8.20;99.90;;;;;;5017253;28;20043;-64
2022/05/08 03:21:48;;;;;;;6.53;3.63;;;8.10;99.90;;;;;;5034678;28;20108;-64
2022/05/08 03:24:14;;;;;;;8.43;3.75;;;8.00;99.90;;;;;;5017085;28;20464;-64
2022/05/08 03:26:40;;;;;;;11.02;4.28;;;7.90;99.90;;;;;;5034673;28;20497;-63
2022/05/08 03:29:07;;;;;;;7.47;3.63;;;7.80;99.90;;;;;;5016833;28;20056;-64
2022/05/08 03:31:33;;;;;;;8.52;3.47;;;7.80;99.90;;;;;;5016923;28;20041;-64
2022/05/08 03:33:59;;;;;;;8.90;3.58;;;7.70;99.90;;;;;;5034593;28;20033;-64
2022/05/08 03:36:25;;;;;;;7.43;3.47;;;7.70;99.90;;;;;;5034731;28;20056;-64
2022/05/08 03:38:50;;;;;;;6.50;3.97;;;7.80;99.90;;;;;;5034938;28;20419;-63
2022/05/08 03:41:16;;;;;;;7.25;3.83;;;7.80;99.90;;;;;;5035070;28;20474;-63
2022/05/08 03:43:45;;;;;;;11.70;3.60;;;7.80;99.90;;;;;;5034593;28;20437;-64
2022/05/08 03:46:10;;;;;;;9.75;4.05;;;7.70;99.90;;;;;;5034936;28;20040;-63
2022/05/08 03:48:36;;;;;;;7.28;3.50;;;7.70;99.90;;;;;;5035194;28;20053;-64
2022/05/08 03:51:03;;;;;;;6.70;3.30;;;7.70;99.90;;;;;;5034728;28;20030;-64
2022/05/08 03:53:28;;;;;;;6.20;3.75;;;7.60;99.90;;;;;;4984891;28;20029;-64
2022/05/08 03:55:54;;;;;;;9.40;3.85;;;7.60;99.90;;;;;;5034497;28;20035;-63
2022/05/08 03:58:20;;;;;;;9.55;5.00;;;7.70;99.90;;;;;;5034325;28;20037;-64
2022/05/08 04:00:46;;;;;;;18.10;4.88;;;7.80;99.90;;;;;;5034181;28;20034;-64
2022/05/08 04:03:11;;;;;;;9.23;3.65;;;7.80;99.90;;;;;;5034195;28;20121;-64
2022/05/08 04:05:37;;;;;;;5.82;3.63;;;7.80;99.90;;;;;;5033959;28;20042;-64
2022/05/08 04:08:03;;;;;;;10.40;4.85;;;7.80;99.90;;;;;;5034082;28;20394;-64
2022/05/08 04:10:28;;;;;;;9.52;4.93;;;7.80;99.90;;;;;;5016263;28;20045;-64
2022/05/08 04:12:54;;;;;;;6.20;3.67;;;7.70;99.90;;;;;;5033908;28;20045;-64
2022/05/08 04:18:04;;;;;;;8.65;3.85;;;7.50;99.90;;;;;;5033666;28;20386;-64
2022/05/08 04:20:30;;;;;;;10.98;5.22;;;7.40;99.90;;;;;;5016049;28;20033;-64
2022/05/08 04:25:40;;;;;;;11.63;4.25;;;7.70;99.90;;;;;;5033632;28;20072;-64
2022/05/08 04:28:05;;;;;;;13.32;4.30;;;7.80;99.90;;;;;;5033429;28;20037;-64
2022/05/08 04:30:31;;;;;;;7.10;3.70;;;7.80;99.90;;;;;;5033898;28;20068;-64
2022/05/08 04:32:57;;;;;;;14.70;5.88;;;7.70;99.90;;;;;;5034246;28;20065;-64
2022/05/08 04:35:23;;;;;;;10.57;4.82;;;7.70;99.90;;;;;;5034144;28;20036;-64
2022/05/08 04:37:49;;;;;;;11.48;5.57;;;7.70;99.90;;;;;;5034406;28;20029;-64
2022/05/08 04:40:14;;;;;;;9.38;4.72;;;7.80;99.90;;;;;;5033368;28;20065;-64
2022/05/08 04:42:40;;;;;;;9.20;5.03;;;7.70;99.90;;;;;;5033395;28;20037;-64
2022/05/08 04:45:06;;;;;;;9.85;5.45;;;7.60;99.90;;;;;;5015452;28;20046;-64
2022/05/08 04:47:33;;;;;;;10.07;4.97;;;7.70;99.90;;;;;;5015724;28;20064;-64
2022/05/08 04:49:58;;;;;;;9.77;4.47;;;7.80;99.90;;;;;;5033401;28;20393;-64
2022/05/08 04:52:24;;;;;;;10.88;4.80;;;7.70;99.90;;;;;;5033095;28;20033;-64
2022/05/08 04:54:50;;;;;;;10.95;4.25;;;7.80;99.90;;;;;;5032927;28;20021;-64
2022/05/08 04:57:15;;;;;;;14.13;5.13;;;7.70;99.90;;;;;;5032812;28;20026;-64
2022/05/08 04:59:41;;;;;;;9.90;5.35;;;7.80;99.90;;;;;;5032936;28;20482;-64
2022/05/08 05:02:08;;;;;;;17.45;6.32;;;7.90;99.90;;;;;;5033003;28;20033;-64
2022/05/08 05:04:35;;;;;;;13.38;6.30;;;8.00;99.90;;;;;;5033175;28;20037;-64
2022/05/08 05:07:01;;;;;;;13.15;5.97;;;8.10;99.90;;;;;;5032927;28;20056;-65
2022/05/08 05:09:27;;;;;;;14.73;5.22;;;8.10;99.90;;;;;;5033439;28;20489;-64
2022/05/08 05:11:54;;;;;;;13.13;4.47;;;8.20;99.90;;;;;;5034139;28;20044;-64
2022/05/08 05:14:19;;;;;;;9.85;5.13;;;8.30;99.90;;;;;;5033555;28;20448;-64
2022/05/08 05:16:46;;;;;;;10.57;5.22;;;8.20;99.90;;;;;;5033325;28;20037;-64
2022/05/08 05:19:12;;;;;;;12.80;5.78;;;8.20;99.90;;;;;;5033353;28;20040;-64
2022/05/08 05:21:37;;;;;;;7.85;5.07;;;8.30;99.90;;;;;;5033462;28;20037;-64
2022/05/08 05:24:04;;;;;;;11.07;5.13;;;8.40;99.90;;;;;;5033538;28;20509;-64
2022/05/08 05:26:29;;;;;;;11.15;4.60;;;8.40;99.90;;;;;;5033428;28;20045;-63
2022/05/08 05:28:55;;;;;;;9.60;4.20;;;8.40;99.90;;;;;;5032672;28;20064;-64
2022/05/08 05:31:20;;;;;;;11.63;4.78;;;8.50;99.90;;;;;;5014901;28;20041;-64
2022/05/08 05:33:46;;;;;;;14.98;4.78;;;8.50;99.90;;;;;;5032836;28;20042;-64
2022/05/08 05:36:13;;;;;;;9.40;5.10;;;8.60;99.90;;;;;;5033261;28;20394;-64
2022/05/08 05:38:39;;;;;;;13.82;5.32;;;8.70;99.90;;;;;;5032699;28;20160;-64
2022/05/08 05:41:05;;;;;;;11.55;5.85;;;8.70;99.90;;;;;;5032467;28;20549;-64
2022/05/08 05:43:33;;;;;;;10.88;4.80;;;8.80;99.90;;;;;;5031161;28;20095;-64
2022/05/08 05:48:43;;;;;;;11.50;5.43;;;8.90;99.90;;;;;;5032906;28;20509;-64
2022/05/08 05:51:09;;;;;;;14.15;6.88;;;9.00;99.90;;;;;;5014756;28;20030;-63
2022/05/08 05:53:35;;;;;;;14.00;5.15;;;9.10;99.90;;;;;;5032352;28;20033;-64
2022/05/08 05:56:01;;;;;;;11.38;6.28;;;9.20;99.90;;;;;;5032369;28;20545;-63
2022/05/08 05:58:27;;;;;;;12.15;5.57;;;9.30;99.90;;;;;;5014683;28;20071;-63
2022/05/08 06:00:53;;;;;;;11.35;5.85;;;9.50;99.90;;;;;;5032303;28;20037;-63
2022/05/08 06:03:18;;;;;;;18.13;6.38;;;9.50;99.90;;;;;;5032308;28;20033;-63
2022/05/08 06:05:44;;;;;;;12.30;5.28;;;9.60;99.90;;;;;;5032322;28;20033;-64
2022/05/08 06:08:10;;;;;;;13.52;5.32;;;9.70;99.90;;;;;;5035654;28;20032;-64
2022/05/08 06:10:36;;;;;;;9.55;4.78;;;9.80;99.90;;;;;;5036586;28;20029;-64
2022/05/08 06:13:02;;;;;;;18.92;5.97;;;9.90;99.90;;;;;;5018442;28;20029;-63
2022/05/08 06:15:28;;;;;;;16.30;5.35;;;10.00;99.90;;;;;;5036412;28;20495;-63
2022/05/08 06:17:55;;;;;;;13.73;4.95;;;10.10;99.90;;;;;;5002126;28;20041;-64
2022/05/08 06:20:21;;;;;;;8.43;5.13;;;10.20;99.90;;;;;;5036652;28;20034;-63
2022/05/08 06:22:47;;;;;;;9.23;4.75;;;10.30;99.90;;;;;;5036318;28;20026;-63
2022/05/08 06:25:12;;;;;;;12.68;4.32;;;10.40;99.90;;;;;;5036665;28;20033;-63
2022/05/08 06:27:38;;;;;;;17.42;4.72;;;10.50;99.90;;;;;;5036200;28;20038;-63
2022/05/08 06:30:06;;;;;;;16.08;5.25;;;10.50;99.90;;;;;;5035812;28;20052;-63
2022/05/08 06:32:31;;;;;;;13.48;4.28;;;10.60;99.90;;;;;;5035897;28;20054;-63
2022/05/08 06:34:57;;;;;;;11.25;3.70;;;10.70;99.90;;;;;;5036023;28;20042;-62
2022/05/08 06:37:22;;;;;;;7.43;3.28;;;10.80;99.90;;;;;;5035640;28;20095;-63
2022/05/08 06:39:48;;;;;;;10.02;3.72;;;10.90;99.90;;;;;;5035342;28;20029;-63
2022/05/08 06:42:14;;;;;;;8.30;3.38;;;10.90;99.90;;;;;;5035665;28;20036;-62
2022/05/08 06:44:39;;;;;;;9.30;3.25;;;11.00;99.90;;;;;;5036039;28;20445;-62
2022/05/08 06:47:05;;;;;;;7.38;3.40;;;11.20;99.90;;;;;;5036056;28;20034;-62
2022/05/08 06:49:31;;;;;;;5.97;2.42;;;11.20;99.90;;;;;;5018318;28;20033;-62
2022/05/08 06:51:56;;;;;;;9.80;2.78;;;11.30;99.90;;;;;;5036021;28;20049;-62
2022/05/08 06:54:23;;;;;;;14.13;3.67;;;11.40;99.90;;;;;;5035704;28;20026;-63
2022/05/08 06:56:49;;;;;;;8.85;3.28;;;11.50;99.90;;;;;;5035115;28;20034;-62
2022/05/08 07:01:59;;;;;;;12.75;4.00;;;11.70;99.90;;;;;;5035235;28;20048;-62
2022/05/08 07:04:25;;;;;;;7.50;2.67;;;11.80;99.90;;;;;;5034907;28;20038;-61
2022/05/08 07:06:51;;;;;;;11.65;3.63;;;12.00;99.90;;;;;;5035342;28;20033;-62
2022/05/08 07:09:17;;;;;;;6.75;2.50;;;12.10;99.90;;;;;;5017370;28;20040;-62
2022/05/08 07:11:47;;;;;;;12.95;3.90;;;12.20;99.90;;;;;;5001000;28;20124;-61
2022/05/08 07:14:14;;;;;;;11.00;3.25;;;12.20;99.90;;;;;;5018075;28;20033;-61
2022/05/08 07:16:40;;;;;;;14.03;3.53;;;12.20;99.90;;;;;;5034797;28;20494;-61
2022/05/08 07:19:06;;;;;;;11.77;3.50;;;12.30;99.90;;;;;;5033946;28;20128;-62
2022/05/08 07:21:31;;;;;;;10.77;2.60;;;12.30;99.90;;;;;;5034829;28;20064;-62
2022/05/08 07:23:57;;;;;;;7.25;2.53;;;12.40;99.90;;;;;;5034845;28;20045;-61
2022/05/08 07:26:23;;;;;;;6.00;1.83;;;12.40;99.90;;;;;;5017114;28;20042;-61
2022/05/08 07:28:49;;;;;;;8.02;3.25;;;12.50;99.90;;;;;;5034676;28;20115;-62
2022/05/08 07:31:15;;;;;;;7.35;1.88;;;12.60;99.90;;;;;;5034795;28;20045;-62
2022/05/08 07:33:40;;;;;;;7.55;2.08;;;12.70;99.90;;;;;;5017235;28;20029;-62
2022/05/08 07:36:12;;;;;;;8.95;2.03;;;12.70;99.90;;;;;;5034672;28;20029;-62
2022/05/08 07:38:43;;;;;;;9.23;2.45;;;12.70;99.90;;;;;;5034786;28;20485;-62
2022/05/08 07:41:10;;;;;;;11.27;1.83;;;12.80;99.90;;;;;;5034813;28;20025;-62
2022/05/08 07:43:37;;;;;;;12.95;2.25;;;12.90;99.90;;;;;;5016350;28;20064;-62
2022/05/08 07:46:03;;;;;;;8.43;2.20;;;13.00;99.90;;;;;;5034070;28;20033;-61
2022/05/08 07:48:30;;;;;;;10.52;1.65;;;13.00;99.90;;;;;;5016899;28;20030;-61
2022/05/08 07:50:59;;;;;;;7.78;1.58;;;13.00;99.90;;;;;;5034787;28;20025;-61
2022/05/08 07:53:25;;;;;;;9.10;1.55;;;13.20;99.90;;;;;;5034574;28;20033;-61
2022/05/08 07:55:53;;;;;;;5.00;1.67;;;13.30;99.90;;;;;;5033782;28;20466;-62
2022/05/08 07:58:22;;;;;;;6.30;1.70;;;13.40;99.90;;;;;;5033892;28;20116;-61
2022/05/08 08:00:49;;;;;;;9.60;1.52;;;13.30;99.40;;;;;;5033898;28;20037;-61
2022/05/08 08:03:17;;;;;;;10.45;1.65;;;13.40;99.90;;;;;;5034160;28;20117;-60
2022/05/08 08:05:43;;;;;;;6.47;1.23;;;13.50;99.90;;;;;;5016036;28;20072;-61
2022/05/08 08:08:09;;;;;;;6.55;1.38;;;13.60;99.90;;;;;;5016213;28;20080;-61
2022/05/08 08:10:38;;;;;;;6.95;1.60;;;13.70;99.00;;;;;;5033705;28;20503;-60
2022/05/08 08:13:04;;;;;;;6.88;1.40;;;13.70;99.70;;;;;;5015993;28;20033;-61
2022/05/08 08:15:31;;;;;;;7.97;1.83;;;13.90;99.30;;;;;;5033894;28;20060;-61
2022/05/08 08:17:56;;;;;;;8.75;1.48;;;14.00;99.70;;;;;;5033445;28;20486;-60
2022/05/08 08:20:22;;;;;;;8.75;2.05;;;14.10;97.80;;;;;;5033291;28;20033;-61
2022/05/08 08:22:48;;;;;;;5.80;1.27;;;14.20;98.30;;;;;;5033749;28;20108;-60
2022/05/08 08:25:14;;;;;;;7.18;1.13;;;14.40;98.10;;;;;;5016105;28;20117;-60
2022/05/08 08:27:40;;;;;;;9.77;1.85;;;14.40;97.20;;;;;;5033917;28;20470;-60
2022/05/08 08:30:07;;;;;;;7.90;2.08;;;14.40;98.40;;;;;;5014495;28;20137;-60
2022/05/08 08:32:33;;;;;;;6.57;1.52;;;14.60;97.60;;;;;;5033882;28;20401;-61
2022/05/08 08:34:59;;;;;;;4.88;1.15;;;14.80;96.20;;;;;;5033129;28;20036;-60
2022/05/08 08:37:24;;;;;;;5.68;1.00;;;14.90;95.60;;;;;;5016020;28;20453;-60
2022/05/08 08:39:50;;;;;;;5.55;1.45;;;14.90;97.20;;;;;;5033080;28;20033;-63
2022/05/08 08:42:26;;;;;;;8.00;2.00;;;14.90;96.50;;;;;;5033525;28;20095;-61
2022/05/08 08:47:49;;;;;;;6.38;1.52;;;15.20;96.60;;;;;;5033638;28;20107;-62
2022/05/08 08:50:17;;;;;;;8.57;1.92;;;15.50;95.80;;;;;;5024287;28;20049;-62
2022/05/08 08:52:43;;;;;;;4.20;1.10;;;15.60;95.00;;;;;;5030825;28;20029;-61
2022/05/08 08:55:09;;;;;;;9.13;2.03;;;15.60;96.10;;;;;;5033084;28;20127;-62
2022/05/08 08:57:35;;;;;;;8.10;1.70;;;15.80;95.80;;;;;;5033468;28;20034;-61
2022/05/08 09:00:02;;;;;;;5.30;1.40;;;15.90;95.20;;;;;;5033564;28;20045;-62
2022/05/08 09:02:28;;;;;;;5.93;1.48;;;16.00;94.40;;;;;;5034024;28;20528;-63
2022/05/08 09:04:54;;;;;;;5.82;1.30;;;16.00;95.70;;;;;;5033272;28;20072;-62
2022/05/08 09:07:38;;;;;;;7.57;1.92;;;15.90;95.10;;;;;;5033276;28;20053;-62
2022/05/08 09:10:07;;;;;;;6.03;1.67;;;16.00;95.90;;;;;;5033490;28;20038;-62
2022/05/08 09:12:32;;;;;;;4.80;1.27;;;16.10;94.70;;;;;;5032969;28;20040;-62
2022/05/08 09:14:58;;;;;;;5.57;1.90;;;16.20;95.20;;;;;;5032566;28;20045;-61
2022/05/08 09:17:23;;;;;;;7.20;1.73;;;16.40;94.90;;;;;;5032851;28;20059;-62
2022/05/08 09:19:49;;;;;;;11.25;1.60;;;16.60;94.80;;;;;;5032817;28;20508;-62
2022/05/08 09:22:18;;;;;;;4.53;1.48;;;16.80;94.20;;;;;;5015226;28;20087;-62
2022/05/08 09:24:54;;;;;;;11.23;1.73;;;17.30;93.10;;;;;;5032951;28;20132;-62
2022/05/08 09:27:20;;;;;;;7.53;1.67;;;17.70;93.00;;;;;;5032109;28;20042;-64
2022/05/08 09:29:46;;;;;;;13.55;1.65;;;17.60;92.40;;;;;;5032506;28;20060;-63
2022/05/08 09:32:38;;;;;;;8.95;1.17;;;17.50;93.40;;;;;;5032152;28;20026;-62
2022/05/08 09:35:05;;;;;;;11.93;1.70;;;17.50;92.90;;;;;;5031837;28;20406;-62
2022/05/08 09:37:30;;;;;;;10.02;1.90;;;18.00;91.00;;;;;;5032275;28;20441;-63
2022/05/08 09:40:16;;;;;;;5.45;1.85;;;18.00;92.10;;;;;;5032455;28;20075;-62
2022/05/08 09:42:41;;;;;;;8.10;1.45;;;18.00;91.50;;;;;;5031752;28;20378;-63
2022/05/08 09:45:09;;;;;;;6.78;1.63;;;18.40;91.90;;;;;;5032109;28;20026;-62
2022/05/08 09:47:44;;;;;;;4.32;1.00;;;18.70;92.30;;;;;;5031785;28;20046;-62
2022/05/08 09:50:11;;;;;;;8.05;1.75;;;18.90;90.30;;;;;;5012756;28;20042;-63
2022/05/08 09:52:39;;;;;;;7.75;1.60;;;19.50;90.00;;;;;;5015378;28;20037;-62
2022/05/08 09:55:08;;;;;;;6.07;2.00;;;19.90;90.10;;;;;;5031881;28;20052;-63
2022/05/08 09:57:35;;;;;;;4.70;1.17;;;20.40;89.00;;;;;;5031879;28;20070;-63
2022/05/08 10:00:02;;;;;;;6.43;1.52;;;20.00;87.60;;;;;;5032276;28;20037;-63
2022/05/08 10:02:29;;;;;;;4.18;1.17;;;19.90;86.80;;;;;;5031939;28;20037;-63
2022/05/08 10:04:55;;;;;;;4.80;1.08;;;20.40;84.00;;;;;;5030608;28;20102;-63
2022/05/08 10:07:22;;;;;;;4.53;1.30;;;20.60;84.10;;;;;;5030824;28;20437;-64
2022/05/08 10:15:48;;;;;;;12.40;1.50;;;21.30;81.30;;;;;;5052470;28;20397;-63
2022/05/08 10:18:33;;;;;;;8.02;1.60;;;21.00;80.00;;;;;;5034664;28;20091;-64
2022/05/08 10:21:12;;;;;;;9.98;1.50;;;21.20;80.20;;;;;;5014716;28;20052;-62
2022/05/08 10:23:42;;;;;;;6.00;1.38;;;21.40;81.80;;;;;;5018286;28;20070;-62
2022/05/08 10:26:12;;;;;;;9.10;1.35;;;21.20;80.40;;;;;;5020911;28;20046;-62
2022/05/08 10:29:03;;;;;;;7.53;1.20;;;21.00;78.20;;;;;;5004079;28;20053;-62
2022/05/08 10:31:48;;;;;;;5.68;1.00;;;21.30;80.90;;;;;;5029969;28;20124;-63
2022/05/08 10:34:15;;;;;;;4.32;0.90;;;22.10;76.40;;;;;;5030545;28;20129;-62
2022/05/08 10:37:20;;;;;;;5.68;1.60;;;22.40;78.00;;;;;;5030282;28;20482;-63
2022/05/08 10:39:47;;;;;;;4.75;1.50;;;22.20;74.60;;;;;;5027766;28;20125;-63
2022/05/08 10:42:24;;;;;;;7.65;1.75;;;22.10;75.40;;;;;;5030767;28;20409;-63
2022/05/08 10:44:51;;;;;;;6.38;1.23;;;22.40;74.60;;;;;;5030429;28;20038;-62
2022/05/08 10:47:37;;;;;;;9.43;1.40;;;22.10;76.20;;;;;;5030511;28;20389;-63
2022/05/08 10:50:05;;;;;;;8.38;1.35;;;22.00;74.60;;;;;;5030350;28;20033;-62
2022/05/08 10:52:33;;;;;;;5.78;1.00;;;22.20;75.90;;;;;;5012899;28;20546;-63
2022/05/08 10:55:04;;;;;;;4.13;0.93;;;23.30;72.40;;;;;;5033333;28;20405;-63
2022/05/08 10:57:37;;;;;;;7.57;1.45;;;24.00;69.20;;;;;;5033922;28;20032;-64
2022/05/08 11:00:05;;;;;;;4.78;1.33;;;24.20;70.20;;;;;;5034118;28;20026;-63
2022/05/08 11:02:47;;;;;;;7.22;1.20;;;23.90;68.00;;;;;;5021863;28;20124;-61
2022/05/08 11:05:20;;;;;;;8.32;1.52;;;24.20;69.70;;;;;;5033491;28;20087;-61
2022/05/08 11:07:49;;;;;;;4.57;0.95;;;24.30;68.50;;;;;;5033323;28;20386;-60
2022/05/08 11:10:16;;;;;;;3.45;1.00;;;24.10;67.70;;;;;;5029041;28;20159;-60
2022/05/08 11:12:55;;;;;;;6.97;1.20;;;23.90;66.60;;;;;;5033586;28;20044;-62
2022/05/08 11:15:22;;;;;;;5.72;1.33;;;23.50;67.80;;;;;;5030938;28;20503;-61
2022/05/08 11:18:14;;;;;;;5.55;1.30;;;23.50;66.60;;;;;;5033776;28;20072;-61
2022/05/08 11:21:08;;;;;;;13.02;1.60;;;23.80;68.00;;;;;;5023752;28;20117;-61
2022/05/08 11:23:39;;;;;;;4.45;1.20;;;24.80;66.70;;;;;;5027133;28;20041;-60
2022/05/08 11:26:07;;;;;;;6.70;1.20;;;25.00;64.30;;;;;;5033619;28;20504;-61
2022/05/08 11:28:35;;;;;;;5.63;1.52;;;24.80;60.30;;;;;;5033221;28;20041;-61
2022/05/08 11:31:15;;;;;;;4.38;1.23;;;24.40;61.30;;;;;;5033302;28;20103;-61
2022/05/08 11:36:27;;;;;;;2.63;0.80;;;24.90;60.00;;;;;;5034951;28;20045;-62
2022/05/08 11:38:58;;;;;;;7.05;1.00;;;24.40;60.00;;;;;;5034554;28;20517;-61
2022/05/08 11:41:44;;;;;;;4.68;1.23;;;23.70;63.60;;;;;;5034768;28;20109;-63
2022/05/08 11:44:13;;;;;;;3.33;1.00;;;24.10;61.30;;;;;;5016904;28;20366;-62
2022/05/08 11:46:46;;;;;;;3.75;1.00;;;25.20;61.00;;;;;;5035143;28;20262;-59
2022/05/08 11:49:23;;;;;;;3.80;1.20;;;24.90;61.60;;;;;;5033238;28;20041;-61
2022/05/08 11:51:54;;;;;;;4.05;0.98;;;24.70;60.70;;;;;;5034313;28;20033;-60
2022/05/08 11:54:32;;;;;;;4.72;1.00;;;24.70;61.70;;;;;;5016492;28;20498;-60
2022/05/08 11:57:21;;;;;;;3.47;1.08;;;23.80;62.10;;;;;;5034460;28;20057;-62
2022/05/08 11:59:49;;;;;;;7.43;1.92;;;24.10;60.70;;;;;;5016792;28;20018;-63
2022/05/08 12:02:16;;;;;;;7.03;1.75;;;24.30;60.30;;;;;;5034056;28;20025;-62
2022/05/08 12:04:53;;;;;;;4.97;1.92;;;24.10;58.10;;;;;;5034390;28;20037;-62
2022/05/08 12:07:19;;;;;;;;;;;24.20;59.20;;;;;;5035111;28;20133;-62
2022/05/08 12:09:48;;;;;;;2.65;1.00;;;24.20;62.50;;;;;;5034999;28;19991;-61
2022/05/08 12:12:27;;;;;;;4.65;1.13;;;25.20;57.00;;;;;;5034313;28;20450;-62
2022/05/08 12:14:55;;;;;;;6.43;1.05;;;25.70;57.30;;;;;;5033878;28;20111;-60
2022/05/08 12:17:21;;;;;;;5.25;1.55;;;25.90;58.30;;;;;;5033634;28;20033;-60
2022/05/08 12:19:58;;;;;;;5.78;0.90;;;26.50;57.20;;;;;;4999813;28;20494;-60
2022/05/08 12:22:24;;;;;;;;;;;27.10;55.10;;;;;;5034116;28;20037;-60
2022/05/08 12:24:53;;;;;;;4.65;0.93;;;27.10;54.30;;;;;;5033702;28;19909;-60
2022/05/08 12:27:19;;;;;;;6.82;0.98;;;26.70;52.50;;;;;;5015676;28;20041;-60
2022/05/08 12:29:46;;;;;;;4.30;0.93;;;27.20;54.50;;;;;;5033427;28;20050;-61
2022/05/08 12:32:15;;;;;;;7.43;0.90;;;26.20;53.00;;;;;;5015869;28;20503;-62
2022/05/08 12:34:43;;;;;;;3.17;0.80;;;25.50;51.20;;;;;;5033519;28;20069;-61
2022/05/08 12:37:10;;;;;;;9.13;1.77;;;26.10;49.40;;;;;;5033437;28;20033;-61
2022/05/08 12:39:36;;;;;;;4.75;1.30;;;25.50;52.60;;;;;;5033597;28;20390;-60
2022/05/08 12:42:01;;;;;;;3.63;1.08;;;25.40;50.40;;;;;;5015508;28;20037;-61
2022/05/08 12:44:27;;;;;;;2.95;0.77;;;25.60;52.80;;;;;;5033255;28;20044;-61
2022/05/08 12:46:53;;;;;;;4.68;1.10;;;26.70;52.40;;;;;;5033299;28;20045;-61
2022/05/08 12:49:19;;;;;;;3.10;0.80;;;25.90;47.70;;;;;;5015761;28;20352;-59
2022/05/08 12:51:45;;;;;;;5.10;0.90;;;25.90;54.40;;;;;;5015543;28;20582;-59
2022/05/08 12:54:11;;;;;;;5.10;1.13;;;26.50;54.30;;;;;;5033191;28;20029;-59
2022/05/08 12:56:37;;;;;;;3.63;1.27;;;26.30;49.50;;;;;;5015645;28;20033;-60
2022/05/08 13:01:51;;;;;;;5.10;0.80;;;26.00;51.50;;;;;;5033027;28;20040;-59
2022/05/08 13:04:17;;;;;;;3.72;0.93;;;25.90;51.70;;;;;;5015089;28;20482;-60
2022/05/08 13:06:43;;;;;;;3.60;0.95;;;25.90;49.50;;;;;;5033143;28;20029;-60
2022/05/08 13:09:09;;;;;;;4.25;0.93;;;26.10;52.60;;;;;;5014288;28;20040;-60
2022/05/08 13:11:36;;;;;;;6.47;0.85;;;26.30;51.40;;;;;;5013211;28;20140;-57
2022/05/08 13:14:03;;;;;;;4.18;0.88;;;25.80;48.60;;;;;;5013890;28;20482;-59
2022/05/08 13:16:30;;;;;;;6.40;1.27;;;24.90;45.80;;;;;;5031974;28;20060;-59
2022/05/08 13:18:56;;;;;;;6.57;1.13;;;24.50;50.40;;;;;;5029239;28;20034;-60